Terminal Aerodrome Forecast
Issued by NWS Sterling, VA

Home | Current Version | Previous Version | Text Only | Print | Product List | Glossary On
Versions: 1 2 3 4 5 6 7 8 9 10 11 12 13 14 15 16 17 18 19 20 21 22 23 24 25
000
FTUS41 KLWX 301500 AAB
TAFIAD
TAF AMD
KIAD 301503Z 3015/0118 VRB03KT P6SM OVC010
     FM301800 12004KT P6SM OVC050
     FM302100 10004KT P6SM BKN050 BKN150
     FM010400 VRB03KT 5SM BR BKN150
     FM010700 05004KT 2SM BR OVC015
     FM011300 02005KT P6SM BKN030=

USA.gov is the U.S. government's official web portal to all federal, state and local government web resources and services.